createdAt,value
2022-08-02T00:00:15.420Z,101498.84
2022-08-02T00:02:43.511Z,101498.19
2022-08-02T00:05:13.569Z,101494.16
2022-08-02T00:07:41.829Z,101493.53
2022-08-02T00:10:11.433Z,101488.59
2022-08-02T00:12:39.868Z,101496.63
2022-08-02T00:15:09.455Z,101488.00
2022-08-02T00:17:37.600Z,101493.09
2022-08-02T00:20:06.770Z,101483.88
2022-08-02T00:22:35.941Z,101480.94
2022-08-02T00:25:03.733Z,101474.88
2022-08-02T00:27:31.499Z,101478.59
2022-08-02T00:29:59.448Z,101481.03
2022-08-02T00:32:27.218Z,101482.25
2022-08-02T00:34:54.992Z,101485.22
2022-08-02T00:37:22.748Z,101476.34
2022-08-02T00:39:51.866Z,101469.31
2022-08-02T00:42:19.916Z,101478.59
2022-08-02T00:44:47.640Z,101471.91
2022-08-02T00:47:19.475Z,101471.44
2022-08-02T00:49:47.593Z,101471.78
2022-08-02T00:52:15.530Z,101469.72
2022-08-02T00:54:43.353Z,101467.66
2022-08-02T00:57:12.458Z,101468.03
2022-08-02T00:59:41.899Z,101474.53
2022-08-02T01:02:10.087Z,101468.88
2022-08-02T01:04:38.154Z,101466.06
2022-08-02T01:07:12.973Z,101463.56
2022-08-02T01:09:42.281Z,101469.94
2022-08-02T01:12:11.088Z,101467.03
2022-08-02T01:14:42.215Z,101467.63
2022-08-02T01:17:16.522Z,101463.44
2022-08-02T01:19:53.781Z,101470.72
2022-08-02T01:23:00.559Z,101463.03
2022-08-02T01:25:47.792Z,101467.66
2022-08-02T01:28:29.364Z,101463.09
2022-08-02T01:31:02.134Z,101462.44
2022-08-02T01:33:36.861Z,101458.78
2022-08-02T01:36:08.385Z,101447.69
2022-08-02T01:38:41.040Z,101444.03
2022-08-02T01:41:13.784Z,101444.03
2022-08-02T01:43:45.484Z,101440.16
2022-08-02T01:46:15.115Z,101440.88
2022-08-02T01:48:45.016Z,101440.22
2022-08-02T01:51:16.032Z,101436.06
2022-08-02T01:53:46.630Z,101432.84
2022-08-02T01:56:15.919Z,101432.59
2022-08-02T01:58:47.688Z,101426.81
2022-08-02T02:01:18.404Z,101426.41
2022-08-02T02:03:49.430Z,101417.31
2022-08-02T02:06:19.367Z,101416.56
2022-08-02T02:08:48.514Z,101416.91
2022-08-02T02:12:05.990Z,101413.69
2022-08-02T02:14:08.933Z,101412.22
2022-08-02T02:16:38.745Z,101407.88
2022-08-02T02:19:08.642Z,101414.84
2022-08-02T02:21:37.875Z,101411.19
2022-08-02T02:24:11.696Z,101400.19
2022-08-02T02:26:44.277Z,101404.63
2022-08-02T02:29:22.935Z,101407.97
2022-08-02T02:31:53.745Z,101413.91
2022-08-02T02:34:31.155Z,101404.06
2022-08-02T02:37:03.602Z,101406.03
2022-08-02T02:39:33.287Z,101409.69
2022-08-02T02:42:05.517Z,101404.94
2022-08-02T02:44:36.231Z,101401.06
2022-08-02T02:47:04.536Z,101405.28
2022-08-02T02:49:33.978Z,101402.78
2022-08-02T02:52:02.842Z,101395.56
2022-08-02T02:54:35.381Z,101400.09
2022-08-02T02:57:06.088Z,101403.31
2022-08-02T02:59:36.490Z,101401.69
2022-08-02T03:02:12.472Z,101401.06
2022-08-02T03:04:57.318Z,101394.38
2022-08-02T03:07:26.694Z,101392.03
2022-08-02T03:09:55.244Z,101386.63
2022-08-02T03:12:31.247Z,101390.94
2022-08-02T03:15:04.124Z,101395.47
2022-08-02T03:17:46.120Z,101390.06
2022-08-02T03:20:16.714Z,101391.03
2022-08-02T03:22:46.247Z,101384.13
2022-08-02T03:25:15.131Z,101394.28
2022-08-02T03:27:42.970Z,101389.22
2022-08-02T03:30:13.949Z,101393.78
2022-08-02T03:32:44.769Z,101393.53
2022-08-02T03:35:18.599Z,101394.44
2022-08-02T03:37:51.766Z,101392.47
2022-08-02T03:40:20.215Z,101390.31
2022-08-02T03:42:49.357Z,101386.97
2022-08-02T03:45:19.458Z,101387.06
2022-08-02T03:47:47.683Z,101384.50
2022-08-02T03:50:15.993Z,101386.44
2022-08-02T03:52:45.232Z,101390.97
2022-08-02T03:55:14.795Z,101394.56
2022-08-02T03:57:43.913Z,101388.84
2022-08-02T04:00:18.453Z,101389.78
2022-08-02T04:02:47.917Z,101389.78
2022-08-02T04:05:16.130Z,101387.09
2022-08-02T04:08:35.119Z,101388.84
2022-08-02T04:10:52.516Z,101382.78
2022-08-02T04:13:25.579Z,101381.03
2022-08-02T04:16:00.578Z,101392.06
2022-08-02T04:18:33.346Z,101392.94
2022-08-02T04:21:05.478Z,101397.47
2022-08-02T04:23:36.213Z,101387.53
2022-08-02T04:26:05.557Z,101393.16
2022-08-02T04:28:37.529Z,101386.03
2022-08-02T04:31:06.930Z,101387.22
2022-08-02T04:33:36.849Z,101384.19
2022-08-02T04:36:06.609Z,101386.78
2022-08-02T04:38:34.602Z,101384.63
2022-08-02T04:41:02.325Z,101381.25
2022-08-02T04:43:30.135Z,101387.53
2022-08-02T04:45:57.868Z,101385.03
2022-08-02T04:48:25.789Z,101397.03
2022-08-02T04:50:55.028Z,101403.19
2022-08-02T04:53:22.844Z,101396.16
2022-08-02T04:55:50.680Z,101394.88
2022-08-02T04:58:39.308Z,101397.91
2022-08-02T05:01:06.305Z,101396.19
2022-08-02T05:03:34.312Z,101401.78
2022-08-02T05:06:03.545Z,101408.94
2022-08-02T05:08:46.476Z,101404.59
2022-08-02T05:11:20.814Z,101408.69
2022-08-02T05:13:58.667Z,101405.22
2022-08-02T05:16:31.405Z,101404.72
2022-08-02T05:19:00.018Z,101409.13
2022-08-02T05:21:29.332Z,101406.75
2022-08-02T05:23:57.092Z,101409.09
2022-08-02T05:26:24.886Z,101413.94
2022-08-02T05:28:52.609Z,101415.47
2022-08-02T05:31:20.382Z,101419.22
2022-08-02T05:33:48.225Z,101426.78
2022-08-02T05:36:16.516Z,101419.75
2022-08-02T05:38:49.886Z,101425.25
2022-08-02T05:41:18.050Z,101427.03
2022-08-02T05:43:46.131Z,101430.09
2022-08-02T05:46:14.063Z,101426.28
2022-08-02T05:48:41.876Z,101428.75
2022-08-02T05:51:16.927Z,101431.53
2022-08-02T05:53:52.674Z,101433.31
2022-08-02T05:56:25.869Z,101432.59
2022-08-02T05:58:57.424Z,101432.84
2022-08-02T06:01:30.108Z,101434.34
2022-08-02T06:04:00.739Z,101429.47
2022-08-02T06:06:33.312Z,101427.84
2022-08-02T06:09:04.164Z,101433.41
2022-08-02T06:11:36.857Z,101429.78
2022-08-02T06:14:06.192Z,101426.97
2022-08-02T06:16:42.247Z,101437.13
2022-08-02T06:19:10.855Z,101430.06
2022-08-02T06:22:31.551Z,101431.25
2022-08-02T06:24:31.543Z,101430.34
2022-08-02T06:27:00.453Z,101440.97
2022-08-02T06:29:29.884Z,101436.53
2022-08-02T06:31:58.438Z,101427.91
2022-08-02T06:34:26.182Z,101434.53
2022-08-02T06:37:03.508Z,101433.50
2022-08-02T06:39:40.750Z,101435.56
2022-08-02T06:42:14.415Z,101428.19
2022-08-02T06:44:48.743Z,101433.16
2022-08-02T06:47:17.741Z,101427.13
2022-08-02T06:49:51.773Z,101434.38
2022-08-02T06:52:27.369Z,101431.16
2022-08-02T06:54:58.732Z,101424.44
2022-08-02T06:57:26.569Z,101427.66
2022-08-02T06:59:54.428Z,101424.88
2022-08-02T07:02:22.735Z,101427.84
2022-08-02T07:04:50.678Z,101432.38
2022-08-02T07:07:18.507Z,101426.28
2022-08-02T07:09:56.553Z,101426.66
2022-08-02T07:12:31.732Z,101422.16
2022-08-02T07:15:00.303Z,101425.75
2022-08-02T07:17:28.445Z,101419.44
2022-08-02T07:19:56.260Z,101422.47
2022-08-02T07:22:24.567Z,101419.81
2022-08-02T07:24:52.893Z,101425.06
2022-08-02T07:27:20.894Z,101418.22
2022-08-02T07:29:50.012Z,101424.13
2022-08-02T07:32:18.426Z,101419.03
2022-08-02T07:34:50.384Z,101418.84
2022-08-02T07:37:35.208Z,101424.97
2022-08-02T07:40:12.429Z,101420.84
2022-08-02T07:42:42.153Z,101426.66
2022-08-02T07:45:12.414Z,101412.06
2022-08-02T07:47:40.603Z,101424.06
2022-08-02T07:50:11.992Z,101424.25
2022-08-02T07:52:40.255Z,101421.06
2022-08-02T07:55:08.812Z,101427.09
2022-08-02T07:57:37.053Z,101414.06
2022-08-02T08:00:05.756Z,101421.94
2022-08-02T08:02:34.853Z,101419.69
2022-08-02T08:05:02.910Z,101415.25
2022-08-02T08:07:30.733Z,101419.66
2022-08-02T08:09:59.786Z,101430.28
2022-08-02T08:12:28.028Z,101428.28
2022-08-02T08:14:55.763Z,101426.72
2022-08-02T08:17:23.653Z,101428.88
2022-08-02T08:19:53.172Z,101420.25
2022-08-02T08:22:21.696Z,101423.22
2022-08-02T08:24:50.028Z,101421.91
2022-08-02T08:27:18.155Z,101423.06
2022-08-02T08:29:46.653Z,101423.19
2022-08-02T08:32:17.532Z,101419.53
2022-08-02T08:34:46.451Z,101417.28
2022-08-02T08:37:16.838Z,101416.69
2022-08-02T08:39:57.431Z,101417.59
2022-08-02T08:42:26.745Z,101423.41
2022-08-02T08:44:56.095Z,101421.53
2022-08-02T08:47:25.245Z,101420.44
2022-08-02T08:49:56.741Z,101416.72
2022-08-02T08:52:28.209Z,101418.69
2022-08-02T08:54:57.502Z,101421.88
2022-08-02T08:57:29.938Z,101416.88
2022-08-02T08:59:57.982Z,101407.69
2022-08-02T09:02:28.358Z,101410.56
2022-08-02T09:04:56.698Z,101411.41
2022-08-02T09:07:25.910Z,101405.19
2022-08-02T09:09:53.654Z,101405.63
2022-08-02T09:12:24.967Z,101406.50
2022-08-02T09:14:53.033Z,101406.66
2022-08-02T09:17:22.017Z,101401.63
2022-08-02T09:20:08.332Z,101393.34
2022-08-02T09:22:37.570Z,101399.16
2022-08-02T09:25:06.240Z,101394.34
2022-08-02T09:27:37.277Z,101394.78
2022-08-02T09:30:12.156Z,101400.13
2022-08-02T09:32:50.699Z,101398.69
2022-08-02T09:36:06.691Z,101402.50
2022-08-02T09:38:22.596Z,101399.06
2022-08-02T09:40:53.744Z,101395.72
2022-08-02T09:43:22.986Z,101404.66
2022-08-02T09:45:51.396Z,101403.97
2022-08-02T09:48:19.804Z,101402.69
2022-08-02T09:50:48.275Z,101401.00
2022-08-02T09:53:19.852Z,101401.78
2022-08-02T09:55:57.207Z,101402.72
2022-08-02T09:58:24.996Z,101397.13
2022-08-02T10:00:54.923Z,101400.56
2022-08-02T10:03:23.026Z,101396.31
2022-08-02T10:06:02.125Z,101401.13
2022-08-02T10:08:33.271Z,101396.00
2022-08-02T10:11:03.743Z,101401.97
2022-08-02T10:13:34.403Z,101392.22
2022-08-02T10:16:03.744Z,101391.16
2022-08-02T10:18:40.845Z,101389.41
2022-08-02T10:21:14.319Z,101394.84
2022-08-02T10:23:45.364Z,101391.50
2022-08-02T10:26:20.143Z,101383.28
2022-08-02T10:28:50.584Z,101381.22
2022-08-02T10:31:26.625Z,101378.56
2022-08-02T10:33:56.893Z,101382.97
2022-08-02T10:36:27.435Z,101378.50
2022-08-02T10:38:58.796Z,101379.88
2022-08-02T10:41:45.761Z,101382.97
2022-08-02T10:44:38.296Z,101365.50
2022-08-02T10:47:25.885Z,101358.81
2022-08-02T10:49:55.649Z,101370.56
2022-08-02T10:52:24.806Z,101373.28
2022-08-02T10:54:57.302Z,101369.47
2022-08-02T10:57:28.307Z,101366.16
2022-08-02T10:59:58.422Z,101361.41
2022-08-02T11:02:39.093Z,101361.22
2022-08-02T11:05:15.561Z,101353.94
2022-08-02T11:07:49.220Z,101358.31
2022-08-02T11:10:35.771Z,101355.94
2022-08-02T11:13:11.532Z,101347.81
2022-08-02T11:16:10.710Z,101352.09
2022-08-02T11:19:09.345Z,101358.59
2022-08-02T11:21:37.543Z,101350.47
2022-08-02T11:24:31.039Z,101349.47
2022-08-02T11:27:00.247Z,101345.03
2022-08-02T11:29:38.447Z,101344.25
2022-08-02T11:32:07.714Z,101343.06
2022-08-02T11:34:37.607Z,101331.34
2022-08-02T11:37:06.516Z,101333.53
2022-08-02T11:39:34.288Z,101327.78
2022-08-02T11:42:02.403Z,101336.75
2022-08-02T11:44:31.594Z,101323.97
2022-08-02T11:47:02.553Z,101325.53
2022-08-02T11:49:30.981Z,101323.13
2022-08-02T11:52:01.815Z,101324.06
2022-08-02T11:54:32.518Z,101320.34
2022-08-02T11:57:19.207Z,101308.72
2022-08-02T11:59:49.382Z,101315.84
2022-08-02T12:02:19.787Z,101316.88
2022-08-02T12:04:54.595Z,101318.00
2022-08-02T12:07:34.305Z,101307.56
2022-08-02T12:10:05.626Z,101311.75
2022-08-02T12:12:33.808Z,101306.09
2022-08-02T12:15:01.719Z,101302.41
2022-08-02T12:17:59.743Z,101299.66
2022-08-02T12:20:37.162Z,101299.53
2022-08-02T12:23:04.970Z,101295.22
2022-08-02T12:25:33.907Z,101292.78
2022-08-02T12:28:18.791Z,101287.75
2022-08-02T12:30:54.564Z,101281.38
2022-08-02T12:33:24.899Z,101282.50
2022-08-02T12:35:52.899Z,101285.63
2022-08-02T12:38:20.839Z,101281.50
2022-08-02T12:40:49.329Z,101275.22
2022-08-02T12:43:20.279Z,101272.06
2022-08-02T12:45:51.376Z,101275.63
2022-08-02T12:48:37.408Z,101266.88
2022-08-02T12:51:19.923Z,101266.84
2022-08-02T12:53:48.049Z,101261.72
2022-08-02T12:56:29.500Z,101264.69
2022-08-02T12:58:57.719Z,101257.72
2022-08-02T13:01:27.277Z,101258.84
2022-08-02T13:04:09.001Z,101248.66
2022-08-02T13:06:45.487Z,101250.03
2022-08-02T13:09:14.507Z,101245.59
2022-08-02T13:11:43.303Z,101238.06
2022-08-02T13:14:12.061Z,101240.38
2022-08-02T13:16:40.882Z,101235.63
2022-08-02T13:19:10.130Z,101231.50
2022-08-02T13:21:41.194Z,101229.38
2022-08-02T13:24:38.386Z,101226.88
2022-08-02T13:27:09.040Z,101221.31
2022-08-02T13:29:37.493Z,101212.94
2022-08-02T13:32:05.697Z,101216.75
2022-08-02T13:34:34.870Z,101208.25
2022-08-02T13:37:02.906Z,101205.22
2022-08-02T13:39:30.824Z,101205.25
2022-08-02T13:41:58.538Z,101199.69
2022-08-02T13:44:26.262Z,101199.31
2022-08-02T13:46:54.022Z,101201.44
2022-08-02T13:49:50.969Z,101195.28
2022-08-02T13:52:13.145Z,101194.66
2022-08-02T13:54:41.202Z,101187.56
2022-08-02T13:57:08.962Z,101192.03
2022-08-02T13:59:56.823Z,101193.84
2022-08-02T14:02:24.497Z,101188.47
2022-08-02T14:04:52.261Z,101187.09
2022-08-02T14:07:22.017Z,101183.72
2022-08-02T14:09:49.745Z,101179.75
2022-08-02T14:12:17.732Z,101172.31
2022-08-02T14:14:45.501Z,101166.75
2022-08-02T14:17:14.522Z,101169.84
2022-08-02T14:19:42.281Z,101162.69
2022-08-02T14:22:21.179Z,101163.22
2022-08-02T14:24:50.738Z,101156.75
2022-08-02T14:27:18.470Z,101155.34
2022-08-02T14:29:47.928Z,101157.41
2022-08-02T14:32:16.206Z,101152.25
2022-08-02T14:34:44.921Z,101149.03
2022-08-02T14:37:12.709Z,101146.13
2022-08-02T14:39:43.269Z,101136.91
2022-08-02T14:42:29.761Z,101133.22
2022-08-02T14:44:57.533Z,101129.13
2022-08-02T14:47:25.327Z,101135.16
2022-08-02T14:49:53.165Z,101130.63
2022-08-02T14:52:21.254Z,101124.06
2022-08-02T14:54:49.140Z,101122.06
2022-08-02T14:57:17.141Z,101124.19
2022-08-02T14:59:47.224Z,101122.97
2022-08-02T15:02:15.346Z,101114.25
2022-08-02T15:04:44.069Z,101122.66
2022-08-02T15:07:12.754Z,101121.69
2022-08-02T15:09:40.506Z,101112.94
2022-08-02T15:12:09.483Z,101110.56
2022-08-02T15:14:37.604Z,101103.22
2022-08-02T15:17:06.915Z,101110.63
2022-08-02T15:19:57.387Z,101106.31
2022-08-02T15:22:22.437Z,101097.56
2022-08-02T15:24:51.062Z,101097.22
2022-08-02T15:27:18.846Z,101100.84
2022-08-02T15:29:47.738Z,101091.66
2022-08-02T15:32:18.727Z,101095.78
2022-08-02T15:34:47.214Z,101092.38
2022-08-02T15:37:15.000Z,101085.19
2022-08-02T15:39:42.740Z,101085.81
2022-08-02T15:42:10.749Z,101086.44
2022-08-02T15:44:38.845Z,101083.94
2022-08-02T15:47:07.599Z,101074.13
2022-08-02T15:49:41.030Z,101076.00
2022-08-02T15:52:10.754Z,101069.75
2022-08-02T15:54:38.943Z,101071.44
2022-08-02T15:57:06.717Z,101064.31
2022-08-02T15:59:34.506Z,101060.84
2022-08-02T16:02:03.152Z,101048.84
2022-08-02T16:04:30.972Z,101052.06
2022-08-02T16:07:01.347Z,101050.63
2022-08-02T16:09:29.837Z,101051.75
2022-08-02T16:11:57.893Z,101049.84
2022-08-02T16:14:25.706Z,101042.31
2022-08-02T16:16:53.482Z,101037.31
2022-08-02T16:19:46.463Z,101040.41
2022-08-02T16:22:12.632Z,101039.81
2022-08-02T16:24:41.320Z,101032.25
2022-08-02T16:27:09.770Z,101032.25
2022-08-02T16:29:38.470Z,101035.75
2022-08-02T16:32:07.716Z,101025.84
2022-08-02T16:34:57.111Z,101022.94
2022-08-02T16:37:27.552Z,101020.63
2022-08-02T16:40:15.445Z,101016.53
2022-08-02T16:42:48.774Z,101021.31
2022-08-02T16:45:19.982Z,101017.75
2022-08-02T16:47:55.162Z,101016.63
2022-08-02T16:50:28.739Z,101020.16
2022-08-02T16:52:58.961Z,101017.59
2022-08-02T16:55:30.326Z,101010.22
2022-08-02T16:57:59.179Z,101010.50
2022-08-02T17:00:26.983Z,101018.13
2022-08-02T17:02:54.893Z,101013.16
2022-08-02T17:05:29.799Z,101011.66
2022-08-02T17:08:16.338Z,101016.44
2022-08-02T17:10:45.356Z,101010.06
2022-08-02T17:13:13.581Z,101006.66
2022-08-02T17:16:15.787Z,101001.56
2022-08-02T17:18:29.985Z,101002.06
2022-08-02T17:20:58.523Z,101003.75
2022-08-02T17:23:47.197Z,101001.78
2022-08-02T17:26:16.686Z,101003.09
2022-08-02T17:29:14.575Z,101001.44
2022-08-02T17:31:43.054Z,100996.19
2022-08-02T17:34:13.760Z,100994.47
2022-08-02T17:36:45.348Z,100989.34
2022-08-02T17:39:19.118Z,100988.28
2022-08-02T17:41:49.250Z,100980.25
2022-08-02T17:44:37.287Z,100984.28
2022-08-02T17:47:06.233Z,100990.66
2022-08-02T17:49:37.075Z,100985.59
2022-08-02T17:52:49.122Z,100977.06
2022-08-02T17:55:02.169Z,100983.44
2022-08-02T17:57:57.669Z,100986.84
2022-08-02T18:00:20.000Z,100978.16
2022-08-02T18:02:50.560Z,100975.00
2022-08-02T18:05:20.759Z,100971.59
2022-08-02T18:07:53.031Z,100970.50
2022-08-02T18:10:26.224Z,100976.44
2022-08-02T18:12:54.292Z,100972.38
2022-08-02T18:15:24.023Z,100967.31
2022-08-02T18:17:51.760Z,100969.84
2022-08-02T18:20:22.705Z,100975.56
2022-08-02T18:22:55.769Z,100971.31
2022-08-02T18:25:37.451Z,100968.56
2022-08-02T18:28:12.531Z,100969.63
2022-08-02T18:30:40.607Z,100969.41
2022-08-02T18:33:59.489Z,100962.19
2022-08-02T18:35:56.799Z,100961.97
2022-08-02T18:38:27.839Z,100962.78
2022-08-02T18:40:59.583Z,100961.72
2022-08-02T18:43:29.415Z,100958.13
2022-08-02T18:46:05.548Z,100955.34
2022-08-02T18:48:44.309Z,100956.00
2022-08-02T18:51:16.061Z,100949.84
2022-08-02T18:53:48.838Z,100941.34
2022-08-02T18:56:19.760Z,100944.28
2022-08-02T18:58:52.178Z,100943.19
2022-08-02T19:01:31.475Z,100936.19
2022-08-02T19:04:00.643Z,100938.75
2022-08-02T19:06:29.078Z,100936.59
2022-08-02T19:09:05.477Z,100931.72
2022-08-02T19:11:48.437Z,100935.09
2022-08-02T19:14:27.618Z,100943.72
2022-08-02T19:16:57.386Z,100944.94
2022-08-02T19:22:16.176Z,100945.63
2022-08-02T19:24:45.741Z,100938.75
2022-08-02T19:27:15.508Z,100949.97
2022-08-02T19:29:48.919Z,100940.78
2022-08-02T19:32:39.740Z,100948.84
2022-08-02T19:35:19.712Z,100952.84
2022-08-02T19:37:59.185Z,100953.88
2022-08-02T19:40:29.010Z,100952.06
2022-08-02T19:44:23.978Z,100956.41
2022-08-02T19:45:50.567Z,100952.63
2022-08-02T19:48:24.431Z,100953.97
2022-08-02T19:50:56.803Z,100961.44
2022-08-02T19:53:47.936Z,100958.38
2022-08-02T19:56:31.144Z,100961.09
2022-08-02T19:59:13.336Z,100960.56
2022-08-02T20:01:48.670Z,100961.13
2022-08-02T20:04:22.908Z,100962.97
2022-08-02T20:06:51.304Z,100979.25
2022-08-02T20:09:21.443Z,100969.47
2022-08-02T20:11:54.810Z,100977.06
2022-08-02T20:14:27.622Z,100986.00
2022-08-02T20:16:56.085Z,100999.69
2022-08-02T20:19:25.053Z,101017.84
2022-08-02T20:21:59.685Z,101015.28
2022-08-02T20:24:29.449Z,101012.25
2022-08-02T20:26:59.384Z,101018.03
2022-08-02T20:32:22.592Z,101029.69
2022-08-02T20:34:51.094Z,101039.03
2022-08-02T20:38:00.765Z,101030.97
2022-08-02T20:40:10.065Z,101041.03
2022-08-02T20:42:44.777Z,101048.59
2022-08-02T20:45:16.923Z,101053.28
2022-08-02T20:47:45.779Z,101048.72
2022-08-02T20:50:34.996Z,101059.03
2022-08-02T20:53:04.045Z,101042.97
2022-08-02T20:55:32.872Z,101050.47
2022-08-02T20:58:02.531Z,101050.50
2022-08-02T21:00:32.388Z,101049.44
2022-08-02T21:03:00.556Z,101057.47
2022-08-02T21:05:54.318Z,101052.34
2022-08-02T21:08:19.067Z,101043.91
2022-08-02T21:10:52.146Z,101054.34
2022-08-02T21:13:23.811Z,101056.13
2022-08-02T21:15:54.123Z,101060.63
2022-08-02T21:18:33.560Z,101060.09
2022-08-02T21:23:55.702Z,101052.63
2022-08-02T21:26:28.508Z,101056.75
2022-08-02T21:29:00.920Z,101050.88
2022-08-02T21:31:36.001Z,101056.38
2022-08-02T21:36:53.314Z,101056.28
2022-08-02T21:39:21.098Z,101050.84
2022-08-02T21:41:49.778Z,101061.13
2022-08-02T21:44:19.277Z,101063.38
2022-08-02T21:46:50.098Z,101061.75
2022-08-02T21:49:18.580Z,101064.78
2022-08-02T21:51:48.915Z,101065.00
2022-08-02T21:54:20.358Z,101061.97
2022-08-02T21:56:52.091Z,101067.97
2022-08-02T21:59:25.677Z,101071.63
2022-08-02T22:01:56.886Z,101069.28
2022-08-02T22:04:25.766Z,101065.31
2022-08-02T22:06:54.061Z,101071.47
2022-08-02T22:09:43.121Z,101075.50
2022-08-02T22:12:17.042Z,101071.78
2022-08-02T22:14:49.563Z,101075.13
2022-08-02T22:17:51.317Z,101074.22
2022-08-02T22:20:14.042Z,101071.34
2022-08-02T22:22:43.122Z,101070.28
2022-08-02T22:25:27.185Z,101074.25
2022-08-02T22:28:36.096Z,101072.44
2022-08-02T22:30:46.636Z,101069.47
2022-08-02T22:33:41.971Z,101073.19
2022-08-02T22:36:11.449Z,101067.13
2022-08-02T22:38:39.522Z,101066.88
2022-08-02T22:41:13.354Z,101067.13
2022-08-02T22:43:41.462Z,101066.28
2022-08-02T22:46:09.716Z,101073.31
2022-08-02T22:48:40.221Z,101074.91
2022-08-02T22:51:08.174Z,101065.16
2022-08-02T22:53:36.253Z,101071.16
2022-08-02T22:56:04.563Z,101069.34
2022-08-02T22:58:32.715Z,101066.41
2022-08-02T22:58:55.568Z,101028.69
2022-08-02T22:58:57.786Z,100942.53
2022-08-02T22:59:02.552Z,101059.72
2022-08-02T22:59:03.016Z,101058.06
2022-08-02T23:01:00.630Z,101060.38
2022-08-02T23:03:28.662Z,101059.06
2022-08-02T23:05:57.905Z,101063.34
2022-08-02T23:08:26.334Z,101066.06
2022-08-02T23:10:54.108Z,101070.78
2022-08-02T23:13:26.637Z,101071.22
2022-08-02T23:16:13.835Z,101075.78
2022-08-02T23:18:59.179Z,101069.94
2022-08-02T23:22:01.040Z,101063.59
2022-08-02T23:24:22.430Z,101069.63
2022-08-02T23:26:50.237Z,101064.19
2022-08-02T23:29:17.987Z,101064.78
2022-08-02T23:31:45.735Z,101068.19
2022-08-02T23:34:13.482Z,101066.22
2022-08-02T23:36:42.739Z,101057.91
2022-08-02T23:39:10.469Z,101062.78
2022-08-02T23:41:38.208Z,101066.41
2022-08-02T23:44:14.851Z,101067.81
2022-08-02T23:46:43.148Z,101063.25
2022-08-02T23:49:11.725Z,101065.44
2022-08-02T23:51:39.530Z,101066.56
2022-08-02T23:54:09.014Z,101062.25
2022-08-02T23:56:37.122Z,101055.53
2022-08-02T23:59:05.358Z,101055.25
